createdAt,value
2018-06-29T00:00:10.269Z,1001.35
2018-06-29T00:01:10.274Z,1001.37
2018-06-29T00:02:10.278Z,1001.39
2018-06-29T00:03:10.280Z,1001.38
2018-06-29T00:04:10.286Z,1001.41
2018-06-29T00:05:10.287Z,1001.40
2018-06-29T00:06:10.290Z,1001.41
2018-06-29T00:07:10.295Z,1001.38
2018-06-29T00:08:10.298Z,1001.37
2018-06-29T00:09:10.304Z,1001.36
2018-06-29T00:10:10.305Z,1001.41
2018-06-29T00:11:10.309Z,1001.40
2018-06-29T00:12:10.312Z,1001.40
2018-06-29T00:13:10.320Z,1001.39
2018-06-29T00:14:10.319Z,1001.43
2018-06-29T00:15:10.323Z,1001.45
2018-06-29T00:16:10.328Z,1001.45
2018-06-29T00:17:10.332Z,1001.47
2018-06-29T00:18:10.339Z,1001.49
2018-06-29T00:19:10.341Z,1001.47
2018-06-29T00:20:10.344Z,1001.48
2018-06-29T00:21:10.348Z,1001.49
2018-06-29T00:22:10.349Z,1001.45
2018-06-29T00:23:10.354Z,1001.44
2018-06-29T00:24:10.363Z,1001.48
2018-06-29T00:25:10.363Z,1001.44
2018-06-29T00:26:10.371Z,1001.42
2018-06-29T00:27:10.371Z,1001.44
2018-06-29T00:28:10.374Z,1001.48
2018-06-29T00:29:10.375Z,1001.47
2018-06-29T00:30:10.386Z,1001.50
2018-06-29T00:31:10.383Z,1001.49
2018-06-29T00:32:10.389Z,1001.51
2018-06-29T00:33:10.391Z,1001.52
2018-06-29T00:34:10.403Z,1001.55
2018-06-29T00:35:10.397Z,1001.54
2018-06-29T00:36:10.402Z,1001.50
2018-06-29T00:37:10.408Z,1001.52
2018-06-29T00:38:10.408Z,1001.50
2018-06-29T00:39:10.411Z,1001.52
2018-06-29T00:40:10.419Z,1001.51
2018-06-29T00:41:10.420Z,1001.55
2018-06-29T00:42:10.434Z,1001.52
2018-06-29T00:43:10.437Z,1001.52
2018-06-29T00:44:10.430Z,1001.50
2018-06-29T00:45:10.436Z,1001.52
2018-06-29T00:46:10.443Z,1001.55
2018-06-29T00:47:10.443Z,1001.53
2018-06-29T00:48:10.445Z,1001.55
2018-06-29T00:49:10.449Z,1001.52
2018-06-29T00:50:10.457Z,1001.53
2018-06-29T00:51:10.523Z,1001.54
2018-06-29T00:52:10.460Z,1001.52
2018-06-29T00:53:10.464Z,1001.54
2018-06-29T00:54:10.469Z,1001.52
2018-06-29T00:55:10.496Z,1001.54
2018-06-29T00:56:10.475Z,1001.55
2018-06-29T00:57:10.479Z,1001.56
2018-06-29T00:58:10.483Z,1001.59
2018-06-29T00:59:10.521Z,1001.61
2018-06-29T01:00:10.493Z,1001.55
2018-06-29T01:01:10.501Z,1001.57
2018-06-29T01:02:10.509Z,1001.54
2018-06-29T01:03:10.501Z,1001.56
2018-06-29T01:04:10.504Z,1001.55
2018-06-29T01:05:10.509Z,1001.50
2018-06-29T01:06:10.512Z,1001.52
2018-06-29T01:07:10.514Z,1001.49
2018-06-29T01:08:10.528Z,1001.51
2018-06-29T01:09:10.526Z,1001.51
2018-06-29T01:10:10.525Z,1001.52
2018-06-29T01:11:10.529Z,1001.50
2018-06-29T01:12:10.535Z,1001.52
2018-06-29T01:13:10.536Z,1001.54
2018-06-29T01:14:10.539Z,1001.60
2018-06-29T01:15:10.546Z,1001.57
2018-06-29T01:16:10.547Z,1001.59
2018-06-29T01:17:10.550Z,1001.58
2018-06-29T01:18:10.552Z,1001.54
2018-06-29T01:19:10.554Z,1001.54
2018-06-29T01:20:10.559Z,1001.52
2018-06-29T01:21:10.563Z,1001.51
2018-06-29T01:22:10.566Z,1001.46
2018-06-29T01:23:10.570Z,1001.47
2018-06-29T01:24:10.573Z,1001.49
2018-06-29T01:25:10.579Z,1001.46
2018-06-29T01:26:10.587Z,1001.52
2018-06-29T01:27:10.583Z,1001.51
2018-06-29T01:28:10.585Z,1001.49
2018-06-29T01:29:10.591Z,1001.49
2018-06-29T01:30:10.601Z,1001.50
2018-06-29T01:31:10.596Z,1001.49
2018-06-29T01:32:10.599Z,1001.50
2018-06-29T01:33:10.602Z,1001.47
2018-06-29T01:34:10.648Z,1001.46
2018-06-29T01:35:10.614Z,1001.44
2018-06-29T01:36:10.640Z,1001.43
2018-06-29T01:37:10.616Z,1001.37
2018-06-29T01:38:10.622Z,1001.37
2018-06-29T01:39:10.626Z,1001.37
2018-06-29T01:40:10.626Z,1001.36
2018-06-29T01:41:10.629Z,1001.34
2018-06-29T01:42:10.647Z,1001.33
2018-06-29T01:43:10.637Z,1001.34
2018-06-29T01:44:10.639Z,1001.29
2018-06-29T01:45:10.754Z,1001.30
2018-06-29T01:46:10.644Z,1001.26
2018-06-29T01:47:10.637Z,1001.24
2018-06-29T01:48:10.644Z,1001.21
2018-06-29T01:49:10.647Z,1001.23
2018-06-29T01:50:10.649Z,1001.23
2018-06-29T01:51:10.650Z,1001.22
2018-06-29T01:52:10.699Z,1001.19
2018-06-29T01:53:10.657Z,1001.19
2018-06-29T01:54:10.659Z,1001.18
2018-06-29T01:55:10.666Z,1001.19
2018-06-29T01:56:10.668Z,1001.21
2018-06-29T01:57:10.671Z,1001.20
2018-06-29T01:58:10.677Z,1001.21
2018-06-29T01:59:10.677Z,1001.20
2018-06-29T02:00:10.680Z,1001.17
2018-06-29T02:01:10.695Z,1001.22
2018-06-29T02:02:10.687Z,1001.25
2018-06-29T02:03:10.691Z,1001.20
2018-06-29T02:04:10.694Z,1001.26
2018-06-29T02:05:10.697Z,1001.27
2018-06-29T02:06:10.701Z,1001.25
2018-06-29T02:07:10.703Z,1001.28
2018-06-29T02:08:10.709Z,1001.29
2018-06-29T02:09:10.720Z,1001.28
2018-06-29T02:10:10.716Z,1001.30
2018-06-29T02:11:10.729Z,1001.29
2018-06-29T02:12:10.721Z,1001.28
2018-06-29T02:13:10.724Z,1001.33
2018-06-29T02:14:10.729Z,1001.32
2018-06-29T02:15:10.730Z,1001.32
2018-06-29T02:16:10.732Z,1001.28
2018-06-29T02:17:10.738Z,1001.23
2018-06-29T02:18:10.744Z,1001.21
2018-06-29T02:19:10.743Z,1001.21
2018-06-29T02:20:10.750Z,1001.19
2018-06-29T02:21:10.750Z,1001.19
2018-06-29T02:22:10.753Z,1001.17
2018-06-29T02:23:10.813Z,1001.20
2018-06-29T02:24:10.760Z,1001.20
2018-06-29T02:25:10.766Z,1001.22
2018-06-29T02:26:10.769Z,1001.21
2018-06-29T02:27:10.769Z,1001.22
2018-06-29T02:28:10.773Z,1001.22
2018-06-29T02:29:10.808Z,1001.18
2018-06-29T02:30:10.779Z,1001.19
2018-06-29T02:31:10.796Z,1001.19
2018-06-29T02:32:10.785Z,1001.20
2018-06-29T02:33:10.790Z,1001.16
2018-06-29T02:34:10.792Z,1001.15
2018-06-29T02:35:10.796Z,1001.15
2018-06-29T02:36:10.799Z,1001.15
2018-06-29T02:37:10.804Z,1001.13
2018-06-29T02:38:10.806Z,1001.15
2018-06-29T02:39:10.808Z,1001.16
2018-06-29T02:40:10.813Z,1001.16
2018-06-29T02:41:10.818Z,1001.16
2018-06-29T02:42:12.574Z,1001.18
2018-06-29T02:43:10.827Z,1001.19
2018-06-29T02:44:10.830Z,1001.20
2018-06-29T02:45:10.847Z,1001.15
2018-06-29T02:46:10.829Z,1001.13
2018-06-29T02:47:10.842Z,1001.13
2018-06-29T02:48:10.841Z,1001.16
2018-06-29T02:49:10.856Z,1001.17
2018-06-29T02:50:10.841Z,1001.18
2018-06-29T02:51:10.846Z,1001.21
2018-06-29T02:52:10.850Z,1001.25
2018-06-29T02:53:10.854Z,1001.20
2018-06-29T02:54:10.855Z,1001.20
2018-06-29T02:55:10.860Z,1001.21
2018-06-29T02:56:10.861Z,1001.21
2018-06-29T02:57:10.868Z,1001.16
2018-06-29T02:58:10.867Z,1001.19
2018-06-29T02:59:10.871Z,1001.13
2018-06-29T03:00:10.875Z,1001.16
2018-06-29T03:01:10.878Z,1001.15
2018-06-29T03:02:10.882Z,1001.15
2018-06-29T03:03:10.883Z,1001.07
2018-06-29T03:04:10.887Z,1001.11
2018-06-29T03:05:10.907Z,1001.05
2018-06-29T03:06:10.892Z,1001.06
2018-06-29T03:07:10.896Z,1001.02
2018-06-29T03:08:10.897Z,1001.01
2018-06-29T03:09:10.902Z,1001.00
2018-06-29T03:10:10.910Z,1001.02
2018-06-29T03:11:10.907Z,1001.00
2018-06-29T03:12:10.910Z,1000.99
2018-06-29T03:13:10.915Z,1001.01
2018-06-29T03:14:10.916Z,1001.03
2018-06-29T03:15:10.926Z,1001.05
2018-06-29T03:16:10.921Z,1001.08
2018-06-29T03:17:10.925Z,1001.05
2018-06-29T03:18:38.572Z,1001.10
2018-06-29T03:19:10.933Z,1001.11
2018-06-29T03:20:10.934Z,1001.13
2018-06-29T03:21:10.940Z,1001.13
2018-06-29T03:22:10.939Z,1001.12
2018-06-29T03:23:10.942Z,1001.11
2018-06-29T03:24:10.946Z,1001.13
2018-06-29T03:25:10.953Z,1001.12
2018-06-29T03:26:10.950Z,1001.11
2018-06-29T03:27:10.953Z,1001.13
2018-06-29T03:28:10.955Z,1001.15
2018-06-29T03:29:10.958Z,1001.12
2018-06-29T03:30:10.961Z,1001.20
2018-06-29T03:31:10.966Z,1001.15
2018-06-29T03:32:10.973Z,1001.17
2018-06-29T03:33:10.970Z,1001.16
2018-06-29T03:34:10.971Z,1001.16
2018-06-29T03:35:10.974Z,1001.17
2018-06-29T03:36:10.983Z,1001.17
2018-06-29T03:37:10.980Z,1001.16
2018-06-29T03:38:10.982Z,1001.20
2018-06-29T03:39:10.985Z,1001.20
2018-06-29T03:40:11.002Z,1001.20
2018-06-29T03:41:10.994Z,1001.19
2018-06-29T03:42:10.995Z,1001.17
2018-06-29T03:43:10.994Z,1001.19
2018-06-29T03:44:10.997Z,1001.19
2018-06-29T03:45:11.001Z,1001.13
2018-06-29T03:46:11.002Z,1001.15
2018-06-29T03:47:11.009Z,1001.20
2018-06-29T03:48:11.018Z,1001.22
2018-06-29T03:49:11.012Z,1001.19
2018-06-29T03:50:11.015Z,1001.18
2018-06-29T03:51:11.016Z,1001.20
2018-06-29T03:52:11.019Z,1001.27
2018-06-29T03:53:11.024Z,1001.24
2018-06-29T03:54:11.026Z,1001.24
2018-06-29T03:55:11.027Z,1001.24
2018-06-29T03:56:11.033Z,1001.23
2018-06-29T03:57:11.032Z,1001.22
2018-06-29T03:58:11.034Z,1001.23
2018-06-29T03:59:11.039Z,1001.22
2018-06-29T04:00:11.042Z,1001.25
2018-06-29T04:01:11.046Z,1001.23
2018-06-29T04:02:11.045Z,1001.24
2018-06-29T04:03:11.094Z,1001.22
2018-06-29T04:04:11.050Z,1001.21
2018-06-29T04:05:11.054Z,1001.21
2018-06-29T04:06:11.056Z,1001.18
2018-06-29T04:07:11.057Z,1001.21
2018-06-29T04:08:11.060Z,1001.25
2018-06-29T04:09:11.062Z,1001.23
2018-06-29T04:10:11.065Z,1001.25
2018-06-29T04:11:11.069Z,1001.29
2018-06-29T04:12:11.069Z,1001.25
2018-06-29T04:13:11.081Z,1001.29
2018-06-29T04:14:11.075Z,1001.30
2018-06-29T04:15:11.078Z,1001.27
2018-06-29T04:16:11.090Z,1001.29
2018-06-29T04:17:11.087Z,1001.27
2018-06-29T04:18:11.085Z,1001.25
2018-06-29T04:19:11.089Z,1001.23
2018-06-29T04:20:11.094Z,1001.24
2018-06-29T04:21:11.094Z,1001.15
2018-06-29T04:22:11.101Z,1001.19
2018-06-29T04:23:11.099Z,1001.18
2018-06-29T04:24:11.104Z,1001.14
2018-06-29T04:25:11.112Z,1001.11
2018-06-29T04:26:11.108Z,1001.14
2018-06-29T04:27:11.111Z,1001.14
2018-06-29T04:28:11.113Z,1001.16
2018-06-29T04:29:11.116Z,1001.16
2018-06-29T04:30:11.118Z,1001.15
2018-06-29T04:31:11.122Z,1001.17
2018-06-29T04:32:11.148Z,1001.18
2018-06-29T04:33:11.125Z,1001.17
2018-06-29T04:34:11.129Z,1001.12
2018-06-29T04:35:11.131Z,1001.16
2018-06-29T04:36:11.138Z,1001.16
2018-06-29T04:37:11.137Z,1001.14
2018-06-29T04:38:11.138Z,1001.20
2018-06-29T04:39:11.143Z,1001.16
2018-06-29T04:40:11.146Z,1001.11
2018-06-29T04:41:11.148Z,1001.08
2018-06-29T04:42:11.149Z,1001.07
2018-06-29T04:43:11.152Z,1001.07
2018-06-29T04:44:11.157Z,1001.10
2018-06-29T04:45:11.160Z,1001.13
2018-06-29T04:46:11.164Z,1001.11
2018-06-29T04:47:11.175Z,1001.11
2018-06-29T04:48:11.167Z,1001.10
2018-06-29T04:49:11.171Z,1001.12
2018-06-29T04:50:11.195Z,1001.09
2018-06-29T04:51:11.177Z,1001.07
2018-06-29T04:52:11.178Z,1001.08
2018-06-29T04:53:11.184Z,1001.10
2018-06-29T04:54:11.185Z,1001.07
2018-06-29T04:55:11.188Z,1001.09
2018-06-29T04:56:11.192Z,1001.06
2018-06-29T04:57:11.192Z,1001.09
2018-06-29T04:58:11.195Z,1001.07
2018-06-29T04:59:11.228Z,1001.07
2018-06-29T05:00:11.211Z,1001.06
2018-06-29T05:01:11.207Z,1001.07
2018-06-29T05:02:11.208Z,1001.06
2018-06-29T05:03:11.209Z,1001.04
2018-06-29T05:04:11.212Z,1001.04
2018-06-29T05:05:11.215Z,1001.03
2018-06-29T05:06:11.219Z,1001.02
2018-06-29T05:07:11.223Z,1001.00
2018-06-29T05:08:11.283Z,1000.98
2018-06-29T05:09:11.226Z,1001.02
2018-06-29T05:10:11.235Z,1000.98
2018-06-29T05:11:11.230Z,1001.02
2018-06-29T05:12:11.236Z,1000.98
2018-06-29T05:13:11.251Z,1000.97
2018-06-29T05:14:11.243Z,1001.00
2018-06-29T05:15:11.242Z,1000.98
2018-06-29T05:16:11.246Z,1001.02
2018-06-29T05:17:11.252Z,1001.04
2018-06-29T05:18:11.251Z,1001.03
2018-06-29T05:19:11.253Z,1001.05
2018-06-29T05:20:11.258Z,1001.06
2018-06-29T05:21:11.259Z,1001.09
2018-06-29T05:22:11.264Z,1001.12
2018-06-29T05:23:11.266Z,1001.11
2018-06-29T05:24:11.269Z,1001.13
2018-06-29T05:25:11.273Z,1001.09
2018-06-29T05:26:11.276Z,1001.06
2018-06-29T05:27:11.316Z,1001.07
2018-06-29T05:28:11.332Z,1001.08
2018-06-29T05:29:11.346Z,1001.08
2018-06-29T05:30:11.343Z,1001.13
2018-06-29T05:31:11.295Z,1001.11
2018-06-29T05:32:11.298Z,1001.10
2018-06-29T05:33:11.307Z,1001.09
2018-06-29T05:34:11.310Z,1001.05
2018-06-29T05:35:11.312Z,1001.09
2018-06-29T05:36:11.318Z,1001.07
2018-06-29T05:37:11.935Z,1001.12
2018-06-29T05:38:11.326Z,1001.07
2018-06-29T05:39:11.336Z,1001.12
2018-06-29T05:40:11.353Z,1001.15
2018-06-29T05:41:11.338Z,1001.16
2018-06-29T05:42:11.346Z,1001.15
2018-06-29T05:43:11.350Z,1001.14
2018-06-29T05:44:11.352Z,1001.11
2018-06-29T05:45:11.359Z,1001.13
2018-06-29T05:46:11.367Z,1001.16
2018-06-29T05:47:11.368Z,1001.17
2018-06-29T05:48:11.372Z,1001.19
2018-06-29T05:49:11.427Z,1001.16
2018-06-29T05:50:11.382Z,1001.19
2018-06-29T05:51:11.389Z,1001.17
2018-06-29T05:52:11.395Z,1001.20
2018-06-29T05:53:11.397Z,1001.22
2018-06-29T05:54:11.399Z,1001.17
2018-06-29T05:55:11.410Z,1001.16
2018-06-29T05:56:11.414Z,1001.21
2018-06-29T05:57:11.415Z,1001.21
2018-06-29T05:58:11.418Z,1001.27
2018-06-29T05:59:11.425Z,1001.26
2018-06-29T06:00:11.429Z,1001.24
2018-06-29T06:01:11.438Z,1001.28
2018-06-29T06:02:11.444Z,1001.28
2018-06-29T06:03:11.443Z,1001.28
2018-06-29T06:04:11.487Z,1001.31
2018-06-29T06:05:11.453Z,1001.30
2018-06-29T06:06:11.457Z,1001.32
2018-06-29T06:07:11.468Z,1001.34
2018-06-29T06:08:11.466Z,1001.34
2018-06-29T06:09:11.469Z,1001.34
2018-06-29T06:10:11.532Z,1001.37
2018-06-29T06:11:11.484Z,1001.34
2018-06-29T06:12:11.482Z,1001.38
2018-06-29T06:13:11.492Z,1001.40
2018-06-29T06:14:11.493Z,1001.36
2018-06-29T06:15:11.523Z,1001.39
2018-06-29T06:16:11.536Z,1001.34
2018-06-29T06:17:11.518Z,1001.36
2018-06-29T06:18:11.511Z,1001.29
2018-06-29T06:19:11.515Z,1001.30
2018-06-29T06:20:11.521Z,1001.29
2018-06-29T06:21:11.530Z,1001.32
2018-06-29T06:22:11.529Z,1001.28
2018-06-29T06:23:11.538Z,1001.33
2018-06-29T06:24:11.542Z,1001.40
2018-06-29T06:25:11.556Z,1001.39
2018-06-29T06:26:11.546Z,1001.38
2018-06-29T06:27:11.552Z,1001.42
2018-06-29T06:28:11.571Z,1001.43
2018-06-29T06:29:11.560Z,1001.48
2018-06-29T06:30:11.565Z,1001.44
2018-06-29T06:31:11.570Z,1001.46
2018-06-29T06:32:11.673Z,1001.46
2018-06-29T06:33:12.667Z,1001.46
2018-06-29T06:34:12.590Z,1001.44
2018-06-29T06:35:11.642Z,1001.49
2018-06-29T06:36:11.591Z,1001.45
2018-06-29T06:37:12.676Z,1001.39
2018-06-29T06:38:12.656Z,1001.46
2018-06-29T06:39:12.588Z,1001.44
2018-06-29T06:40:12.691Z,1001.43
2018-06-29T06:41:12.572Z,1001.50
2018-06-29T06:42:12.606Z,1001.41
2018-06-29T06:43:12.632Z,1001.45
2018-06-29T06:44:12.608Z,1001.48
2018-06-29T06:45:11.737Z,1001.43
2018-06-29T06:46:11.796Z,1001.43
2018-06-29T06:47:12.650Z,1001.47
2018-06-29T06:48:11.765Z,1001.45
2018-06-29T06:49:11.750Z,1001.48
2018-06-29T06:50:11.850Z,1001.49
2018-06-29T06:51:11.876Z,1001.51
2018-06-29T06:52:13.369Z,1001.49
2018-06-29T06:53:12.613Z,1001.53
2018-06-29T06:54:12.700Z,1001.53
2018-06-29T06:55:11.764Z,1001.56
2018-06-29T06:56:13.832Z,1001.51
2018-06-29T06:57:12.664Z,1001.54
2018-06-29T06:58:11.916Z,1001.55
2018-06-29T06:59:11.765Z,1001.52
2018-06-29T07:00:11.993Z,1001.51
2018-06-29T07:01:11.741Z,1001.54
2018-06-29T07:02:12.604Z,1001.58
2018-06-29T07:03:12.643Z,1001.56
2018-06-29T07:04:12.622Z,1001.52
2018-06-29T07:05:13.102Z,1001.54
2018-06-29T07:06:12.660Z,1001.55
2018-06-29T07:07:11.857Z,1001.58
2018-06-29T07:08:12.614Z,1001.58
2018-06-29T07:09:12.633Z,1001.56
2018-06-29T07:10:12.634Z,1001.53
2018-06-29T07:11:12.634Z,1001.57
2018-06-29T07:12:12.599Z,1001.55
2018-06-29T07:13:12.648Z,1001.54
2018-06-29T07:14:12.587Z,1001.55
2018-06-29T07:15:12.586Z,1001.57
2018-06-29T07:16:13.098Z,1001.54
2018-06-29T07:17:12.597Z,1001.54
2018-06-29T07:18:12.710Z,1001.53
2018-06-29T07:19:13.215Z,1001.51
2018-06-29T07:20:12.776Z,1001.60
2018-06-29T07:21:12.596Z,1001.55
2018-06-29T07:22:13.169Z,1001.54
2018-06-29T07:23:12.114Z,1001.61
2018-06-29T07:24:12.574Z,1001.63
2018-06-29T07:25:11.837Z,1001.58
2018-06-29T07:26:12.000Z,1001.55
2018-06-29T07:27:11.809Z,1001.49
2018-06-29T07:28:11.805Z,1001.56
2018-06-29T07:29:11.806Z,1001.49
2018-06-29T07:30:11.810Z,1001.46
2018-06-29T07:31:11.848Z,1001.44
2018-06-29T07:32:12.268Z,1001.44
2018-06-29T07:33:12.181Z,1001.38
2018-06-29T07:34:13.229Z,1001.35
2018-06-29T07:35:12.292Z,1001.37
2018-06-29T07:36:12.745Z,1001.37
2018-06-29T07:37:13.428Z,1001.36
2018-06-29T07:38:14.736Z,1001.36
2018-06-29T07:39:12.724Z,1001.31
2018-06-29T07:40:11.910Z,1001.31
2018-06-29T07:41:12.241Z,1001.30
2018-06-29T07:42:12.771Z,1001.31
2018-06-29T07:43:12.288Z,1001.31
2018-06-29T07:44:11.959Z,1001.32
2018-06-29T07:45:11.917Z,1001.31
2018-06-29T07:46:12.683Z,1001.31
2018-06-29T07:47:11.871Z,1001.31
2018-06-29T07:48:11.975Z,1001.35
2018-06-29T07:49:11.941Z,1001.29
2018-06-29T07:50:11.890Z,1001.26
2018-06-29T07:51:11.896Z,1001.28
2018-06-29T07:52:12.026Z,1001.23
2018-06-29T07:53:12.593Z,1001.22
2018-06-29T07:54:11.922Z,1001.19
2018-06-29T07:55:12.234Z,1001.20
2018-06-29T07:56:12.012Z,1001.20
2018-06-29T07:57:11.927Z,1001.21
2018-06-29T07:58:12.005Z,1001.22
2018-06-29T08:00:12.051Z,1001.12
2018-06-29T08:01:11.930Z,1001.16
2018-06-29T08:02:12.854Z,1001.19
2018-06-29T08:03:11.985Z,1001.12
2018-06-29T08:04:11.952Z,1001.14
2018-06-29T08:05:12.179Z,1001.15
2018-06-29T08:06:12.018Z,1001.11
2018-06-29T08:07:11.945Z,1001.09
2018-06-29T08:08:11.951Z,1001.16
2018-06-29T08:09:11.964Z,1001.13
2018-06-29T08:10:12.005Z,1001.15
2018-06-29T08:11:11.961Z,1001.12
2018-06-29T08:12:12.046Z,1001.14
2018-06-29T08:13:12.101Z,1001.13
2018-06-29T08:14:11.985Z,1001.07
2018-06-29T08:15:12.031Z,1001.12
2018-06-29T08:16:12.033Z,1001.11
2018-06-29T08:17:12.335Z,1001.11
2018-06-29T08:18:12.025Z,1001.09
2018-06-29T08:19:12.001Z,1001.06
2018-06-29T08:20:12.183Z,1001.08
2018-06-29T08:21:12.139Z,1001.11
2018-06-29T08:22:12.006Z,1001.10
2018-06-29T08:23:12.189Z,1001.07
2018-06-29T08:24:12.143Z,1001.04
2018-06-29T08:25:12.041Z,1001.04
2018-06-29T08:26:12.029Z,1001.00
2018-06-29T08:27:12.026Z,1001.01
2018-06-29T08:28:12.042Z,1000.99
2018-06-29T08:29:12.122Z,1001.01
2018-06-29T08:30:12.101Z,1000.99
2018-06-29T08:31:12.049Z,1000.93
2018-06-29T08:32:12.108Z,1000.89
2018-06-29T08:33:12.045Z,1000.87
2018-06-29T08:34:13.176Z,1000.92
2018-06-29T08:35:12.288Z,1000.90
2018-06-29T08:36:12.057Z,1000.91
2018-06-29T08:37:12.061Z,1000.89
2018-06-29T08:38:12.064Z,1000.92
2018-06-29T08:39:12.071Z,1000.93
2018-06-29T08:40:12.098Z,1000.89
2018-06-29T08:41:12.080Z,1000.87
2018-06-29T08:42:12.086Z,1000.91
2018-06-29T08:43:12.089Z,1000.91
2018-06-29T08:44:12.135Z,1000.92
2018-06-29T08:45:12.102Z,1000.88
2018-06-29T08:46:12.250Z,1000.82
2018-06-29T08:47:12.127Z,1000.85
2018-06-29T08:48:12.119Z,1000.84
2018-06-29T08:49:12.125Z,1000.82
2018-06-29T08:50:12.140Z,1000.84
2018-06-29T08:51:12.139Z,1000.84
2018-06-29T08:52:12.155Z,1000.81
2018-06-29T08:53:12.264Z,1000.81
2018-06-29T08:54:12.161Z,1000.87
2018-06-29T08:55:12.188Z,1000.87
2018-06-29T08:56:12.175Z,1000.91
2018-06-29T08:57:12.181Z,1000.91
2018-06-29T08:58:12.187Z,1000.84
2018-06-29T08:59:12.225Z,1000.91
2018-06-29T09:00:12.205Z,1000.89
2018-06-29T09:01:12.266Z,1000.87
2018-06-29T09:02:12.241Z,1000.79
2018-06-29T09:03:12.230Z,1000.80
2018-06-29T09:04:27.324Z,1000.83
2018-06-29T09:05:12.245Z,1000.81
2018-06-29T09:06:12.271Z,1000.81
2018-06-29T09:07:12.265Z,1000.79
2018-06-29T09:08:12.341Z,1000.74
2018-06-29T09:09:12.282Z,1000.71
2018-06-29T09:10:12.549Z,1000.79
2018-06-29T09:11:12.799Z,1000.73
2018-06-29T09:12:15.202Z,1000.73
2018-06-29T09:13:12.451Z,1000.72
2018-06-29T09:14:13.418Z,1000.74
2018-06-29T09:15:12.458Z,1000.69
2018-06-29T09:16:12.344Z,1000.70
2018-06-29T09:17:12.419Z,1000.68
2018-06-29T09:18:12.361Z,1000.64
2018-06-29T09:19:12.507Z,1000.67
2018-06-29T09:20:12.381Z,1000.69
2018-06-29T09:21:12.387Z,1000.65
2018-06-29T09:22:12.395Z,1000.68
2018-06-29T09:23:12.406Z,1000.71
2018-06-29T09:24:12.526Z,1000.72
2018-06-29T09:25:12.424Z,1000.68
2018-06-29T09:26:13.208Z,1000.71
2018-06-29T09:27:12.446Z,1000.63
2018-06-29T09:28:12.781Z,1000.65
2018-06-29T09:29:12.468Z,1000.70
2018-06-29T09:30:12.481Z,1000.74
2018-06-29T09:31:12.485Z,1000.69
2018-06-29T09:32:13.391Z,1000.70
2018-06-29T09:33:12.506Z,1000.65
2018-06-29T09:34:12.567Z,1000.68
2018-06-29T09:35:12.525Z,1000.63
2018-06-29T09:36:12.537Z,1000.61
2018-06-29T09:37:12.548Z,1000.63
2018-06-29T09:38:12.555Z,1000.65
2018-06-29T09:39:12.567Z,1000.64
2018-06-29T09:40:12.579Z,1000.62
2018-06-29T09:41:12.590Z,1000.57
2018-06-29T09:42:12.598Z,1000.59
2018-06-29T09:43:12.615Z,1000.55
2018-06-29T09:44:12.622Z,1000.54
2018-06-29T09:45:12.656Z,1000.51
2018-06-29T09:46:12.646Z,1000.56
2018-06-29T09:47:12.657Z,1000.56
2018-06-29T09:48:12.714Z,1000.49
2018-06-29T09:49:12.685Z,1000.58
2018-06-29T09:50:12.694Z,1000.58
2018-06-29T09:51:12.705Z,1000.59
2018-06-29T09:52:12.718Z,1000.50
2018-06-29T09:53:12.728Z,1000.50
2018-06-29T09:54:12.739Z,1000.48
2018-06-29T09:55:12.757Z,1000.53
2018-06-29T09:56:12.766Z,1000.53
2018-06-29T09:57:12.780Z,1000.52
2018-06-29T09:58:12.845Z,1000.50
2018-06-29T09:59:12.806Z,1000.53
2018-06-29T10:00:12.815Z,1000.58
2018-06-29T10:01:12.861Z,1000.66
2018-06-29T10:02:12.837Z,1000.60
2018-06-29T10:03:12.852Z,1000.51
2018-06-29T10:04:12.871Z,1000.47
2018-06-29T10:05:12.876Z,1000.44
2018-06-29T10:06:13.738Z,1000.52
2018-06-29T10:07:12.906Z,1000.54
2018-06-29T10:08:12.916Z,1000.43
2018-06-29T10:09:13.411Z,1000.42
2018-06-29T10:10:12.963Z,1000.40
2018-06-29T10:11:12.955Z,1000.38
2018-06-29T10:12:13.062Z,1000.47
2018-06-29T10:13:13.133Z,1000.37
2018-06-29T10:14:13.059Z,1000.43
2018-06-29T10:15:13.008Z,1000.38
2018-06-29T10:16:13.023Z,1000.40
2018-06-29T10:17:13.038Z,1000.32
2018-06-29T10:18:13.051Z,1000.33
2018-06-29T10:19:13.076Z,1000.30
2018-06-29T10:20:13.139Z,1000.35
2018-06-29T10:21:13.095Z,1000.35
2018-06-29T10:22:13.212Z,1000.39
2018-06-29T10:23:13.194Z,1000.37
2018-06-29T10:24:13.148Z,1000.33
2018-06-29T10:25:13.226Z,1000.35
2018-06-29T10:26:13.265Z,1000.36
2018-06-29T10:27:13.177Z,1000.34
2018-06-29T10:28:13.317Z,1000.35
2018-06-29T10:29:13.220Z,1000.29
2018-06-29T10:30:13.220Z,1000.25
2018-06-29T10:31:13.233Z,1000.27
2018-06-29T10:32:13.248Z,1000.27
2018-06-29T10:33:13.270Z,1000.24
2018-06-29T10:34:13.286Z,1000.18
2018-06-29T10:35:13.293Z,1000.14
2018-06-29T10:36:13.307Z,1000.20
2018-06-29T10:37:13.323Z,1000.15
2018-06-29T10:38:13.331Z,1000.18
2018-06-29T10:39:13.348Z,1000.20
2018-06-29T10:40:13.367Z,1000.23
2018-06-29T10:41:13.380Z,1000.18
2018-06-29T10:42:13.393Z,1000.17
2018-06-29T10:43:13.409Z,1000.18
2018-06-29T10:44:13.426Z,1000.20
2018-06-29T10:45:13.442Z,1000.17
2018-06-29T10:46:13.453Z,1000.20
2018-06-29T10:47:13.472Z,1000.24
2018-06-29T10:48:13.483Z,1000.14
2018-06-29T10:49:13.512Z,1000.11
2018-06-29T10:50:13.526Z,1000.12
2018-06-29T10:51:13.548Z,1000.11
2018-06-29T10:52:13.553Z,1000.02
2018-06-29T10:53:13.563Z,999.99
2018-06-29T10:54:13.687Z,1000.00
2018-06-29T10:55:14.365Z,1000.01
2018-06-29T10:56:13.612Z,999.97
2018-06-29T10:57:13.626Z,999.99
2018-06-29T10:58:13.639Z,1000.03
2018-06-29T10:59:13.657Z,1000.09
2018-06-29T11:00:13.673Z,1000.06
2018-06-29T11:01:13.707Z,1000.06
2018-06-29T11:02:13.707Z,1000.01
2018-06-29T11:03:13.741Z,999.96
2018-06-29T11:04:13.738Z,999.93
2018-06-29T11:05:14.005Z,999.94
2018-06-29T11:06:13.780Z,999.93
2018-06-29T11:07:14.176Z,999.89
2018-06-29T11:08:13.832Z,999.88
2018-06-29T11:09:13.817Z,999.88
2018-06-29T11:10:14.806Z,999.92
2018-06-29T11:11:13.862Z,999.94
2018-06-29T11:12:13.866Z,999.89
2018-06-29T11:13:13.897Z,999.92
2018-06-29T11:14:13.897Z,999.90
2018-06-29T11:15:14.153Z,999.88
2018-06-29T11:16:13.929Z,999.90
2018-06-29T11:17:13.945Z,999.91
2018-06-29T11:18:13.962Z,999.85
2018-06-29T11:19:13.980Z,999.83
2018-06-29T11:20:13.994Z,999.85
2018-06-29T11:21:14.010Z,999.81
2018-06-29T11:22:14.039Z,999.84
2018-06-29T11:23:14.038Z,999.80
2018-06-29T11:24:14.056Z,999.81
2018-06-29T11:25:14.069Z,999.87
2018-06-29T11:26:14.122Z,999.81
2018-06-29T11:27:14.104Z,999.82
2018-06-29T11:28:14.114Z,999.84
2018-06-29T11:29:14.341Z,999.84
2018-06-29T11:30:14.215Z,999.82
2018-06-29T11:31:14.178Z,999.88
2018-06-29T11:32:14.177Z,999.81
2018-06-29T11:33:14.192Z,999.78
2018-06-29T11:34:14.215Z,999.75
2018-06-29T11:35:14.221Z,999.71
2018-06-29T11:36:14.247Z,999.68
2018-06-29T11:37:14.254Z,999.73
2018-06-29T11:38:14.268Z,999.77
2018-06-29T11:39:14.283Z,999.80
2018-06-29T11:40:14.304Z,999.81
2018-06-29T11:41:14.321Z,999.83
2018-06-29T11:42:14.335Z,999.83
2018-06-29T11:43:14.369Z,999.81
2018-06-29T11:44:14.395Z,999.77
2018-06-29T11:45:14.383Z,999.78
2018-06-29T11:46:14.398Z,999.78
2018-06-29T11:47:14.581Z,999.65
2018-06-29T11:48:14.448Z,999.64
2018-06-29T11:49:14.451Z,999.72
2018-06-29T11:50:14.465Z,999.72
2018-06-29T11:51:14.483Z,999.64
2018-06-29T11:52:14.501Z,999.55
2018-06-29T11:53:16.753Z,999.56
2018-06-29T11:54:14.548Z,999.50
2018-06-29T11:55:14.576Z,999.51
2018-06-29T11:56:14.573Z,999.51
2018-06-29T11:57:14.595Z,999.55
2018-06-29T11:58:14.610Z,999.58
2018-06-29T11:59:14.628Z,999.42
2018-06-29T12:00:14.645Z,999.54
2018-06-29T12:01:14.663Z,999.55
2018-06-29T12:02:14.682Z,999.57
2018-06-29T12:03:14.698Z,999.51
2018-06-29T12:04:14.718Z,999.48
2018-06-29T12:05:14.743Z,999.61
2018-06-29T12:06:14.762Z,999.49
2018-06-29T12:07:14.823Z,999.44
2018-06-29T12:08:14.787Z,999.48